sensor_id;sensor_type;location;lat;lon;timestamp;P1;durP1;ratioP1;P2;durP2;ratioP2
50417;SDS011;36346;48.280;14.292;2023-08-20T00:00:14;11.73;;;11.73;;
50417;SDS011;36346;48.280;14.292;2023-08-20T00:02:43;11.58;;;11.58;;
50417;SDS011;36346;48.280;14.292;2023-08-20T00:05:11;11.73;;;11.73;;
50417;SDS011;36346;48.280;14.292;2023-08-20T00:07:40;11.87;;;11.87;;
50417;SDS011;36346;48.280;14.292;2023-08-20T00:10:08;11.35;;;11.35;;
50417;SDS011;36346;48.280;14.292;2023-08-20T00:12:37;11.69;;;11.69;;
50417;SDS011;36346;48.280;14.292;2023-08-20T00:15:05;11.70;;;11.70;;
50417;SDS011;36346;48.280;14.292;2023-08-20T00:17:35;11.25;;;11.25;;
50417;SDS011;36346;48.280;14.292;2023-08-20T00:20:05;11.67;;;11.67;;
50417;SDS011;36346;48.280;14.292;2023-08-20T00:22:41;11.54;;;11.54;;
50417;SDS011;36346;48.280;14.292;2023-08-20T00:25:10;11.48;;;11.48;;
50417;SDS011;36346;48.280;14.292;2023-08-20T00:27:39;11.52;;;11.52;;
50417;SDS011;36346;48.280;14.292;2023-08-20T00:30:08;11.65;;;11.65;;
50417;SDS011;36346;48.280;14.292;2023-08-20T00:32:37;11.22;;;11.22;;
50417;SDS011;36346;48.280;14.292;2023-08-20T00:35:05;10.96;;;10.96;;
50417;SDS011;36346;48.280;14.292;2023-08-20T00:37:36;11.15;;;11.15;;
50417;SDS011;36346;48.280;14.292;2023-08-20T00:40:05;10.84;;;10.84;;
50417;SDS011;36346;48.280;14.292;2023-08-20T00:42:33;10.86;;;10.86;;
50417;SDS011;36346;48.280;14.292;2023-08-20T00:45:01;10.79;;;10.79;;
50417;SDS011;36346;48.280;14.292;2023-08-20T00:47:31;11.05;;;11.05;;
50417;SDS011;36346;48.280;14.292;2023-08-20T00:50:00;11.41;;;11.41;;
50417;SDS011;36346;48.280;14.292;2023-08-20T00:52:28;11.76;;;11.76;;
50417;SDS011;36346;48.280;14.292;2023-08-20T00:54:56;11.37;;;11.37;;
50417;SDS011;36346;48.280;14.292;2023-08-20T00:57:25;11.19;;;11.19;;
50417;SDS011;36346;48.280;14.292;2023-08-20T00:59:54;11.63;;;11.63;;
50417;SDS011;36346;48.280;14.292;2023-08-20T01:02:23;10.65;;;10.65;;
50417;SDS011;36346;48.280;14.292;2023-08-20T01:04:51;10.61;;;10.61;;
50417;SDS011;36346;48.280;14.292;2023-08-20T01:07:24;10.91;;;10.91;;
50417;SDS011;36346;48.280;14.292;2023-08-20T01:10:15;10.53;;;10.53;;
50417;SDS011;36346;48.280;14.292;2023-08-20T01:12:52;10.77;;;10.77;;
50417;SDS011;36346;48.280;14.292;2023-08-20T01:15:21;10.27;;;10.27;;
50417;SDS011;36346;48.280;14.292;2023-08-20T01:17:49;10.62;;;10.62;;
50417;SDS011;36346;48.280;14.292;2023-08-20T01:20:17;10.92;;;10.92;;
50417;SDS011;36346;48.280;14.292;2023-08-20T01:25:49;10.98;;;10.98;;
50417;SDS011;36346;48.280;14.292;2023-08-20T01:28:29;11.26;;;11.26;;
50417;SDS011;36346;48.280;14.292;2023-08-20T01:30:59;11.13;;;11.13;;
50417;SDS011;36346;48.280;14.292;2023-08-20T01:33:28;11.15;;;11.15;;
50417;SDS011;36346;48.280;14.292;2023-08-20T01:35:58;11.25;;;11.25;;
50417;SDS011;36346;48.280;14.292;2023-08-20T01:38:28;11.50;;;11.50;;
50417;SDS011;36346;48.280;14.292;2023-08-20T01:40:56;10.95;;;10.95;;
50417;SDS011;36346;48.280;14.292;2023-08-20T01:43:24;11.16;;;11.16;;
50417;SDS011;36346;48.280;14.292;2023-08-20T01:45:54;11.43;;;11.43;;
50417;SDS011;36346;48.280;14.292;2023-08-20T01:48:23;11.47;;;11.47;;
50417;SDS011;36346;48.280;14.292;2023-08-20T01:50:51;11.43;;;11.43;;
50417;SDS011;36346;48.280;14.292;2023-08-20T01:53:19;11.45;;;11.45;;
50417;SDS011;36346;48.280;14.292;2023-08-20T01:55:48;11.22;;;11.22;;
50417;SDS011;36346;48.280;14.292;2023-08-20T01:58:15;11.19;;;11.19;;
50417;SDS011;36346;48.280;14.292;2023-08-20T02:00:44;11.37;;;11.37;;
50417;SDS011;36346;48.280;14.292;2023-08-20T02:03:13;11.11;;;11.11;;
50417;SDS011;36346;48.280;14.292;2023-08-20T02:05:41;11.31;;;11.31;;
50417;SDS011;36346;48.280;14.292;2023-08-20T02:08:09;11.39;;;11.39;;
50417;SDS011;36346;48.280;14.292;2023-08-20T02:10:37;11.76;;;11.76;;
50417;SDS011;36346;48.280;14.292;2023-08-20T02:13:05;11.31;;;11.31;;
50417;SDS011;36346;48.280;14.292;2023-08-20T02:15:34;11.15;;;11.15;;
50417;SDS011;36346;48.280;14.292;2023-08-20T02:18:02;11.19;;;11.19;;
50417;SDS011;36346;48.280;14.292;2023-08-20T02:20:30;11.75;;;11.75;;
50417;SDS011;36346;48.280;14.292;2023-08-20T02:22:58;11.07;;;11.07;;
50417;SDS011;36346;48.280;14.292;2023-08-20T02:25:27;11.18;;;11.18;;
50417;SDS011;36346;48.280;14.292;2023-08-20T02:27:55;11.29;;;11.29;;
50417;SDS011;36346;48.280;14.292;2023-08-20T02:30:23;11.47;;;11.47;;
50417;SDS011;36346;48.280;14.292;2023-08-20T02:32:51;11.53;;;11.53;;
50417;SDS011;36346;48.280;14.292;2023-08-20T02:35:19;11.25;;;11.25;;
50417;SDS011;36346;48.280;14.292;2023-08-20T02:37:50;11.50;;;11.50;;
50417;SDS011;36346;48.280;14.292;2023-08-20T02:40:18;11.48;;;11.48;;
50417;SDS011;36346;48.280;14.292;2023-08-20T02:42:46;11.40;;;11.40;;
50417;SDS011;36346;48.280;14.292;2023-08-20T02:45:14;11.97;;;11.97;;
50417;SDS011;36346;48.280;14.292;2023-08-20T02:47:42;11.96;;;11.96;;
50417;SDS011;36346;48.280;14.292;2023-08-20T02:50:10;11.96;;;11.96;;
50417;SDS011;36346;48.280;14.292;2023-08-20T02:52:38;11.69;;;11.69;;
50417;SDS011;36346;48.280;14.292;2023-08-20T02:55:06;12.07;;;12.07;;
50417;SDS011;36346;48.280;14.292;2023-08-20T02:57:34;11.16;;;11.16;;
50417;SDS011;36346;48.280;14.292;2023-08-20T03:00:03;11.29;;;11.29;;
50417;SDS011;36346;48.280;14.292;2023-08-20T03:02:31;11.35;;;11.35;;
50417;SDS011;36346;48.280;14.292;2023-08-20T03:05:00;12.16;;;12.16;;
50417;SDS011;36346;48.280;14.292;2023-08-20T03:07:28;12.27;;;12.27;;
50417;SDS011;36346;48.280;14.292;2023-08-20T03:09:56;11.97;;;11.97;;
50417;SDS011;36346;48.280;14.292;2023-08-20T03:12:24;12.20;;;12.20;;
50417;SDS011;36346;48.280;14.292;2023-08-20T03:14:51;12.23;;;12.23;;
50417;SDS011;36346;48.280;14.292;2023-08-20T03:17:19;11.85;;;11.85;;
50417;SDS011;36346;48.280;14.292;2023-08-20T03:19:58;11.84;;;11.84;;
50417;SDS011;36346;48.280;14.292;2023-08-20T03:22:27;11.46;;;11.46;;
50417;SDS011;36346;48.280;14.292;2023-08-20T03:24:55;11.58;;;11.58;;
50417;SDS011;36346;48.280;14.292;2023-08-20T03:27:23;11.35;;;11.35;;
50417;SDS011;36346;48.280;14.292;2023-08-20T03:29:51;11.60;;;11.60;;
50417;SDS011;36346;48.280;14.292;2023-08-20T03:32:20;11.37;;;11.37;;
50417;SDS011;36346;48.280;14.292;2023-08-20T03:34:48;11.80;;;11.80;;
50417;SDS011;36346;48.280;14.292;2023-08-20T03:37:18;11.98;;;11.98;;
50417;SDS011;36346;48.280;14.292;2023-08-20T03:39:46;11.67;;;11.67;;
50417;SDS011;36346;48.280;14.292;2023-08-20T03:42:14;11.81;;;11.81;;
50417;SDS011;36346;48.280;14.292;2023-08-20T03:44:42;11.00;;;11.00;;
50417;SDS011;36346;48.280;14.292;2023-08-20T03:47:10;11.79;;;11.79;;
50417;SDS011;36346;48.280;14.292;2023-08-20T03:49:38;11.82;;;11.82;;
50417;SDS011;36346;48.280;14.292;2023-08-20T03:52:07;12.18;;;12.18;;
50417;SDS011;36346;48.280;14.292;2023-08-20T03:54:35;11.50;;;11.50;;
50417;SDS011;36346;48.280;14.292;2023-08-20T03:57:03;11.75;;;11.75;;
50417;SDS011;36346;48.280;14.292;2023-08-20T03:59:31;11.90;;;11.90;;
50417;SDS011;36346;48.280;14.292;2023-08-20T04:01:59;11.64;;;11.64;;
50417;SDS011;36346;48.280;14.292;2023-08-20T04:04:27;11.23;;;11.23;;
50417;SDS011;36346;48.280;14.292;2023-08-20T04:06:55;11.48;;;11.48;;
50417;SDS011;36346;48.280;14.292;2023-08-20T04:09:23;12.02;;;12.02;;
50417;SDS011;36346;48.280;14.292;2023-08-20T04:11:51;11.51;;;11.51;;
50417;SDS011;36346;48.280;14.292;2023-08-20T04:14:20;11.31;;;11.31;;
50417;SDS011;36346;48.280;14.292;2023-08-20T04:16:48;11.61;;;11.61;;
50417;SDS011;36346;48.280;14.292;2023-08-20T04:19:16;12.57;;;12.57;;
50417;SDS011;36346;48.280;14.292;2023-08-20T04:21:44;12.21;;;12.21;;
50417;SDS011;36346;48.280;14.292;2023-08-20T04:24:12;11.50;;;11.50;;
50417;SDS011;36346;48.280;14.292;2023-08-20T04:26:40;12.20;;;12.20;;
50417;SDS011;36346;48.280;14.292;2023-08-20T04:29:08;12.41;;;12.41;;
50417;SDS011;36346;48.280;14.292;2023-08-20T04:31:36;12.62;;;12.62;;
50417;SDS011;36346;48.280;14.292;2023-08-20T04:34:09;12.01;;;12.01;;
50417;SDS011;36346;48.280;14.292;2023-08-20T04:36:50;11.77;;;11.77;;
50417;SDS011;36346;48.280;14.292;2023-08-20T04:39:19;12.12;;;12.12;;
50417;SDS011;36346;48.280;14.292;2023-08-20T04:41:52;12.06;;;12.06;;
50417;SDS011;36346;48.280;14.292;2023-08-20T04:44:22;11.63;;;11.63;;
50417;SDS011;36346;48.280;14.292;2023-08-20T04:46:50;12.01;;;12.01;;
50417;SDS011;36346;48.280;14.292;2023-08-20T04:49:18;12.22;;;12.22;;
50417;SDS011;36346;48.280;14.292;2023-08-20T04:51:46;12.18;;;12.18;;
50417;SDS011;36346;48.280;14.292;2023-08-20T04:54:14;11.94;;;11.94;;
50417;SDS011;36346;48.280;14.292;2023-08-20T04:56:42;12.28;;;12.28;;
50417;SDS011;36346;48.280;14.292;2023-08-20T04:59:11;12.16;;;12.16;;
50417;SDS011;36346;48.280;14.292;2023-08-20T05:01:51;11.96;;;11.96;;
50417;SDS011;36346;48.280;14.292;2023-08-20T05:04:28;12.25;;;12.25;;
50417;SDS011;36346;48.280;14.292;2023-08-20T05:06:56;12.80;;;12.80;;
50417;SDS011;36346;48.280;14.292;2023-08-20T05:09:24;12.60;;;12.60;;
50417;SDS011;36346;48.280;14.292;2023-08-20T05:11:53;11.99;;;11.99;;
50417;SDS011;36346;48.280;14.292;2023-08-20T05:14:21;12.09;;;12.09;;
50417;SDS011;36346;48.280;14.292;2023-08-20T05:16:49;12.60;;;12.60;;
50417;SDS011;36346;48.280;14.292;2023-08-20T05:19:17;12.43;;;12.43;;
50417;SDS011;36346;48.280;14.292;2023-08-20T05:21:45;12.07;;;12.07;;
50417;SDS011;36346;48.280;14.292;2023-08-20T05:24:14;11.95;;;11.95;;
50417;SDS011;36346;48.280;14.292;2023-08-20T05:26:42;11.88;;;11.88;;
50417;SDS011;36346;48.280;14.292;2023-08-20T05:29:10;12.07;;;12.07;;
50417;SDS011;36346;48.280;14.292;2023-08-20T05:31:38;13.12;;;13.12;;
50417;SDS011;36346;48.280;14.292;2023-08-20T05:34:07;13.80;;;13.80;;
50417;SDS011;36346;48.280;14.292;2023-08-20T05:36:35;13.28;;;13.28;;
50417;SDS011;36346;48.280;14.292;2023-08-20T05:39:03;13.61;;;13.61;;
50417;SDS011;36346;48.280;14.292;2023-08-20T05:41:31;12.97;;;12.97;;
50417;SDS011;36346;48.280;14.292;2023-08-20T05:43:59;13.13;;;13.13;;
50417;SDS011;36346;48.280;14.292;2023-08-20T05:46:27;14.02;;;14.02;;
50417;SDS011;36346;48.280;14.292;2023-08-20T05:48:56;14.11;;;14.11;;
50417;SDS011;36346;48.280;14.292;2023-08-20T05:51:25;14.39;;;14.39;;
50417;SDS011;36346;48.280;14.292;2023-08-20T05:53:53;14.39;;;14.39;;
50417;SDS011;36346;48.280;14.292;2023-08-20T05:56:21;13.72;;;13.72;;
50417;SDS011;36346;48.280;14.292;2023-08-20T05:58:49;13.99;;;13.99;;
50417;SDS011;36346;48.280;14.292;2023-08-20T06:01:17;13.79;;;13.79;;
50417;SDS011;36346;48.280;14.292;2023-08-20T06:03:45;13.93;;;13.93;;
50417;SDS011;36346;48.280;14.292;2023-08-20T06:06:13;14.19;;;14.19;;
50417;SDS011;36346;48.280;14.292;2023-08-20T06:08:41;14.59;;;14.59;;
50417;SDS011;36346;48.280;14.292;2023-08-20T06:11:19;16.06;;;16.06;;
50417;SDS011;36346;48.280;14.292;2023-08-20T06:13:47;14.97;;;14.97;;
50417;SDS011;36346;48.280;14.292;2023-08-20T06:16:16;14.46;;;14.46;;
50417;SDS011;36346;48.280;14.292;2023-08-20T06:18:43;14.08;;;14.08;;
50417;SDS011;36346;48.280;14.292;2023-08-20T06:21:12;13.79;;;13.79;;
50417;SDS011;36346;48.280;14.292;2023-08-20T06:23:40;14.65;;;14.65;;
50417;SDS011;36346;48.280;14.292;2023-08-20T06:26:11;15.08;;;15.08;;
50417;SDS011;36346;48.280;14.292;2023-08-20T06:28:39;15.13;;;15.13;;
50417;SDS011;36346;48.280;14.292;2023-08-20T06:31:07;15.38;;;15.38;;
50417;SDS011;36346;48.280;14.292;2023-08-20T06:33:35;14.20;;;14.20;;
50417;SDS011;36346;48.280;14.292;2023-08-20T06:36:03;14.91;;;14.91;;
50417;SDS011;36346;48.280;14.292;2023-08-20T06:38:32;15.55;;;15.55;;
50417;SDS011;36346;48.280;14.292;2023-08-20T06:40:59;15.41;;;15.41;;
50417;SDS011;36346;48.280;14.292;2023-08-20T06:43:28;15.49;;;15.49;;
50417;SDS011;36346;48.280;14.292;2023-08-20T06:45:56;15.61;;;15.61;;
50417;SDS011;36346;48.280;14.292;2023-08-20T06:48:24;14.20;;;14.20;;
50417;SDS011;36346;48.280;14.292;2023-08-20T06:50:52;15.35;;;15.35;;
50417;SDS011;36346;48.280;14.292;2023-08-20T06:53:20;16.26;;;16.26;;
50417;SDS011;36346;48.280;14.292;2023-08-20T06:55:48;16.23;;;16.23;;
50417;SDS011;36346;48.280;14.292;2023-08-20T06:58:17;14.87;;;14.87;;
50417;SDS011;36346;48.280;14.292;2023-08-20T07:00:45;14.26;;;14.26;;
50417;SDS011;36346;48.280;14.292;2023-08-20T07:03:13;13.94;;;13.94;;
50417;SDS011;36346;48.280;14.292;2023-08-20T07:05:41;14.09;;;14.09;;
50417;SDS011;36346;48.280;14.292;2023-08-20T07:08:09;15.18;;;15.18;;
50417;SDS011;36346;48.280;14.292;2023-08-20T07:10:37;15.01;;;15.01;;
50417;SDS011;36346;48.280;14.292;2023-08-20T07:13:05;14.24;;;14.24;;
50417;SDS011;36346;48.280;14.292;2023-08-20T07:15:33;14.83;;;14.83;;
50417;SDS011;36346;48.280;14.292;2023-08-20T07:18:01;15.55;;;15.55;;
50417;SDS011;36346;48.280;14.292;2023-08-20T07:20:29;15.76;;;15.76;;
50417;SDS011;36346;48.280;14.292;2023-08-20T07:22:57;15.23;;;15.23;;
50417;SDS011;36346;48.280;14.292;2023-08-20T07:25:25;15.39;;;15.39;;
50417;SDS011;36346;48.280;14.292;2023-08-20T07:27:53;15.50;;;15.50;;
50417;SDS011;36346;48.280;14.292;2023-08-20T07:30:27;15.34;;;15.34;;
50417;SDS011;36346;48.280;14.292;2023-08-20T07:32:55;15.45;;;15.45;;
50417;SDS011;36346;48.280;14.292;2023-08-20T07:35:23;15.63;;;15.63;;
50417;SDS011;36346;48.280;14.292;2023-08-20T07:37:52;16.06;;;16.06;;
50417;SDS011;36346;48.280;14.292;2023-08-20T07:40:20;15.39;;;15.39;;
50417;SDS011;36346;48.280;14.292;2023-08-20T07:42:48;14.85;;;14.85;;
50417;SDS011;36346;48.280;14.292;2023-08-20T07:45:17;14.95;;;14.95;;
50417;SDS011;36346;48.280;14.292;2023-08-20T07:47:45;14.75;;;14.75;;
50417;SDS011;36346;48.280;14.292;2023-08-20T07:50:13;16.04;;;16.04;;
50417;SDS011;36346;48.280;14.292;2023-08-20T07:52:41;17.58;;;17.58;;
50417;SDS011;36346;48.280;14.292;2023-08-20T07:55:09;16.96;;;16.96;;
50417;SDS011;36346;48.280;14.292;2023-08-20T07:57:37;16.11;;;16.11;;
50417;SDS011;36346;48.280;14.292;2023-08-20T08:00:06;17.22;;;17.22;;
50417;SDS011;36346;48.280;14.292;2023-08-20T08:02:54;16.39;;;16.39;;
50417;SDS011;36346;48.280;14.292;2023-08-20T08:05:23;17.13;;;17.13;;
50417;SDS011;36346;48.280;14.292;2023-08-20T08:07:52;17.29;;;17.29;;
50417;SDS011;36346;48.280;14.292;2023-08-20T08:10:20;16.66;;;16.66;;
50417;SDS011;36346;48.280;14.292;2023-08-20T08:12:48;15.07;;;15.07;;
50417;SDS011;36346;48.280;14.292;2023-08-20T08:15:16;15.23;;;15.23;;
50417;SDS011;36346;48.280;14.292;2023-08-20T08:17:44;15.70;;;15.70;;
50417;SDS011;36346;48.280;14.292;2023-08-20T08:20:13;15.46;;;15.46;;
50417;SDS011;36346;48.280;14.292;2023-08-20T08:22:41;15.52;;;15.52;;
50417;SDS011;36346;48.280;14.292;2023-08-20T08:25:09;14.52;;;14.52;;
50417;SDS011;36346;48.280;14.292;2023-08-20T08:27:39;15.18;;;15.18;;
50417;SDS011;36346;48.280;14.292;2023-08-20T08:30:21;16.46;;;16.46;;
50417;SDS011;36346;48.280;14.292;2023-08-20T08:32:49;17.74;;;17.74;;
50417;SDS011;36346;48.280;14.292;2023-08-20T08:35:17;14.43;;;14.43;;
50417;SDS011;36346;48.280;14.292;2023-08-20T08:37:45;15.27;;;15.27;;
50417;SDS011;36346;48.280;14.292;2023-08-20T08:40:13;15.22;;;15.22;;
50417;SDS011;36346;48.280;14.292;2023-08-20T08:42:43;14.45;;;14.45;;
50417;SDS011;36346;48.280;14.292;2023-08-20T08:45:17;14.68;;;14.68;;
50417;SDS011;36346;48.280;14.292;2023-08-20T08:47:47;17.42;;;17.42;;
50417;SDS011;36346;48.280;14.292;2023-08-20T08:50:16;20.02;;;20.02;;
50417;SDS011;36346;48.280;14.292;2023-08-20T08:52:45;14.63;;;14.63;;
50417;SDS011;36346;48.280;14.292;2023-08-20T08:55:15;19.69;;;19.69;;
50417;SDS011;36346;48.280;14.292;2023-08-20T08:57:43;16.11;;;16.11;;
50417;SDS011;36346;48.280;14.292;2023-08-20T09:00:11;15.44;;;15.44;;
50417;SDS011;36346;48.280;14.292;2023-08-20T09:02:40;19.85;;;19.85;;
50417;SDS011;36346;48.280;14.292;2023-08-20T09:05:08;22.36;;;22.36;;
50417;SDS011;36346;48.280;14.292;2023-08-20T09:07:40;19.30;;;19.30;;
50417;SDS011;36346;48.280;14.292;2023-08-20T09:10:10;14.41;;;14.41;;
50417;SDS011;36346;48.280;14.292;2023-08-20T09:12:39;16.61;;;16.61;;
50417;SDS011;36346;48.280;14.292;2023-08-20T09:15:11;22.48;;;22.48;;
50417;SDS011;36346;48.280;14.292;2023-08-20T09:17:42;13.69;;;13.69;;
50417;SDS011;36346;48.280;14.292;2023-08-20T09:20:11;16.93;;;16.93;;
50417;SDS011;36346;48.280;14.292;2023-08-20T09:22:40;14.52;;;14.52;;
50417;SDS011;36346;48.280;14.292;2023-08-20T09:25:16;14.10;;;14.10;;
50417;SDS011;36346;48.280;14.292;2023-08-20T09:27:47;14.13;;;14.13;;
50417;SDS011;36346;48.280;14.292;2023-08-20T09:30:19;13.03;;;13.03;;
50417;SDS011;36346;48.280;14.292;2023-08-20T09:33:04;12.66;;;12.66;;
50417;SDS011;36346;48.280;14.292;2023-08-20T09:35:34;12.89;;;12.89;;
50417;SDS011;36346;48.280;14.292;2023-08-20T09:38:05;15.64;;;15.64;;
50417;SDS011;36346;48.280;14.292;2023-08-20T09:40:33;12.41;;;12.41;;
50417;SDS011;36346;48.280;14.292;2023-08-20T09:43:01;16.12;;;16.12;;
50417;SDS011;36346;48.280;14.292;2023-08-20T09:45:30;16.19;;;16.19;;
50417;SDS011;36346;48.280;14.292;2023-08-20T09:47:59;14.26;;;14.26;;
50417;SDS011;36346;48.280;14.292;2023-08-20T09:50:33;12.68;;;12.68;;
50417;SDS011;36346;48.280;14.292;2023-08-20T09:55:45;13.40;;;13.40;;
50417;SDS011;36346;48.280;14.292;2023-08-20T09:58:15;14.31;;;14.31;;
50417;SDS011;36346;48.280;14.292;2023-08-20T10:00:44;13.27;;;13.27;;
50417;SDS011;36346;48.280;14.292;2023-08-20T10:03:12;12.43;;;12.43;;
50417;SDS011;36346;48.280;14.292;2023-08-20T10:05:40;13.03;;;13.03;;
50417;SDS011;36346;48.280;14.292;2023-08-20T10:08:09;12.88;;;12.88;;
50417;SDS011;36346;48.280;14.292;2023-08-20T10:10:37;13.14;;;13.14;;
50417;SDS011;36346;48.280;14.292;2023-08-20T10:13:06;12.66;;;12.66;;
50417;SDS011;36346;48.280;14.292;2023-08-20T10:15:34;12.08;;;12.08;;
50417;SDS011;36346;48.280;14.292;2023-08-20T10:18:07;12.62;;;12.62;;
50417;SDS011;36346;48.280;14.292;2023-08-20T10:20:35;12.77;;;12.77;;
50417;SDS011;36346;48.280;14.292;2023-08-20T10:23:07;15.51;;;15.51;;
50417;SDS011;36346;48.280;14.292;2023-08-20T10:25:41;18.68;;;18.68;;
50417;SDS011;36346;48.280;14.292;2023-08-20T10:28:35;24.11;;;24.11;;
50417;SDS011;36346;48.280;14.292;2023-08-20T10:31:07;26.83;;;26.79;;
50417;SDS011;36346;48.280;14.292;2023-08-20T10:33:49;21.71;;;21.71;;
50417;SDS011;36346;48.280;14.292;2023-08-20T10:36:20;23.21;;;23.21;;
50417;SDS011;36346;48.280;14.292;2023-08-20T10:38:50;21.68;;;21.68;;
50417;SDS011;36346;48.280;14.292;2023-08-20T10:41:26;16.59;;;16.59;;
50417;SDS011;36346;48.280;14.292;2023-08-20T10:43:58;15.20;;;15.20;;
50417;SDS011;36346;48.280;14.292;2023-08-20T10:46:28;15.18;;;15.18;;
50417;SDS011;36346;48.280;14.292;2023-08-20T10:49:02;17.57;;;17.57;;
50417;SDS011;36346;48.280;14.292;2023-08-20T10:51:35;13.54;;;13.54;;
50417;SDS011;36346;48.280;14.292;2023-08-20T10:54:05;18.97;;;18.97;;
50417;SDS011;36346;48.280;14.292;2023-08-20T10:59:21;23.38;;;23.38;;
50417;SDS011;36346;48.280;14.292;2023-08-20T11:01:58;22.26;;;22.26;;
50417;SDS011;36346;48.280;14.292;2023-08-20T11:04:30;27.88;;;27.88;;
50417;SDS011;36346;48.280;14.292;2023-08-20T11:07:00;28.32;;;28.32;;
50417;SDS011;36346;48.280;14.292;2023-08-20T11:09:30;12.88;;;12.88;;
50417;SDS011;36346;48.280;14.292;2023-08-20T11:11:58;35.19;;;35.19;;
50417;SDS011;36346;48.280;14.292;2023-08-20T11:14:27;26.62;;;26.62;;
50417;SDS011;36346;48.280;14.292;2023-08-20T11:16:55;14.93;;;14.93;;
50417;SDS011;36346;48.280;14.292;2023-08-20T11:19:24;17.11;;;17.11;;
50417;SDS011;36346;48.280;14.292;2023-08-20T11:21:52;15.76;;;15.76;;
50417;SDS011;36346;48.280;14.292;2023-08-20T11:24:20;14.23;;;14.23;;
50417;SDS011;36346;48.280;14.292;2023-08-20T11:26:48;13.27;;;13.27;;
50417;SDS011;36346;48.280;14.292;2023-08-20T11:29:16;12.05;;;12.05;;
50417;SDS011;36346;48.280;14.292;2023-08-20T11:31:48;12.56;;;12.56;;
50417;SDS011;36346;48.280;14.292;2023-08-20T11:34:20;11.43;;;11.43;;
50417;SDS011;36346;48.280;14.292;2023-08-20T11:36:49;16.72;;;16.72;;
50417;SDS011;36346;48.280;14.292;2023-08-20T11:39:18;13.00;;;13.00;;
50417;SDS011;36346;48.280;14.292;2023-08-20T11:41:46;10.85;;;10.85;;
50417;SDS011;36346;48.280;14.292;2023-08-20T11:44:19;15.90;;;15.90;;
50417;SDS011;36346;48.280;14.292;2023-08-20T11:46:54;22.56;;;22.56;;
50417;SDS011;36346;48.280;14.292;2023-08-20T11:49:26;23.80;;;23.80;;
50417;SDS011;36346;48.280;14.292;2023-08-20T11:51:56;22.74;;;22.74;;
50417;SDS011;36346;48.280;14.292;2023-08-20T11:54:25;24.97;;;24.97;;
50417;SDS011;36346;48.280;14.292;2023-08-20T11:57:01;20.95;;;20.95;;
50417;SDS011;36346;48.280;14.292;2023-08-20T11:59:30;27.38;;;27.38;;
50417;SDS011;36346;48.280;14.292;2023-08-20T12:02:00;19.05;;;19.05;;
50417;SDS011;36346;48.280;14.292;2023-08-20T12:04:31;15.75;;;15.75;;
50417;SDS011;36346;48.280;14.292;2023-08-20T12:07:08;13.19;;;13.19;;
50417;SDS011;36346;48.280;14.292;2023-08-20T12:09:41;9.91;;;9.91;;
50417;SDS011;36346;48.280;14.292;2023-08-20T12:12:10;9.81;;;9.81;;
50417;SDS011;36346;48.280;14.292;2023-08-20T12:14:42;11.62;;;11.62;;
50417;SDS011;36346;48.280;14.292;2023-08-20T12:17:11;16.08;;;16.08;;
50417;SDS011;36346;48.280;14.292;2023-08-20T12:19:40;13.10;;;13.10;;
50417;SDS011;36346;48.280;14.292;2023-08-20T12:22:08;10.52;;;10.52;;
50417;SDS011;36346;48.280;14.292;2023-08-20T12:24:36;11.83;;;11.83;;
50417;SDS011;36346;48.280;14.292;2023-08-20T12:27:06;17.63;;;17.63;;
50417;SDS011;36346;48.280;14.292;2023-08-20T12:29:34;22.97;;;22.97;;
50417;SDS011;36346;48.280;14.292;2023-08-20T12:32:03;38.46;;;38.46;;
50417;SDS011;36346;48.280;14.292;2023-08-20T12:34:31;23.02;;;23.02;;
50417;SDS011;36346;48.280;14.292;2023-08-20T12:36:59;25.57;;;25.57;;
50417;SDS011;36346;48.280;14.292;2023-08-20T12:39:27;19.92;;;19.92;;
50417;SDS011;36346;48.280;14.292;2023-08-20T12:41:56;32.11;;;32.11;;
50417;SDS011;36346;48.280;14.292;2023-08-20T12:44:25;26.98;;;26.98;;
50417;SDS011;36346;48.280;14.292;2023-08-20T12:46:53;19.81;;;19.81;;
50417;SDS011;36346;48.280;14.292;2023-08-20T12:49:21;13.83;;;13.83;;
50417;SDS011;36346;48.280;14.292;2023-08-20T12:51:49;29.21;;;29.21;;
50417;SDS011;36346;48.280;14.292;2023-08-20T12:54:17;43.26;;;43.24;;
50417;SDS011;36346;48.280;14.292;2023-08-20T12:56:45;60.46;;;60.46;;
50417;SDS011;36346;48.280;14.292;2023-08-20T12:59:14;28.78;;;28.78;;
50417;SDS011;36346;48.280;14.292;2023-08-20T13:01:42;48.36;;;48.36;;
50417;SDS011;36346;48.280;14.292;2023-08-20T13:04:10;33.61;;;33.61;;
50417;SDS011;36346;48.280;14.292;2023-08-20T13:06:39;35.44;;;35.43;;
50417;SDS011;36346;48.280;14.292;2023-08-20T13:09:10;18.40;;;18.40;;
50417;SDS011;36346;48.280;14.292;2023-08-20T13:11:43;16.40;;;16.40;;
50417;SDS011;36346;48.280;14.292;2023-08-20T13:14:12;15.10;;;15.10;;
50417;SDS011;36346;48.280;14.292;2023-08-20T13:16:40;12.09;;;12.09;;
50417;SDS011;36346;48.280;14.292;2023-08-20T13:19:09;10.08;;;10.08;;
50417;SDS011;36346;48.280;14.292;2023-08-20T13:21:37;10.04;;;10.04;;
50417;SDS011;36346;48.280;14.292;2023-08-20T13:24:06;11.32;;;11.32;;
50417;SDS011;36346;48.280;14.292;2023-08-20T13:26:34;12.58;;;12.58;;
50417;SDS011;36346;48.280;14.292;2023-08-20T13:29:02;9.25;;;9.25;;
50417;SDS011;36346;48.280;14.292;2023-08-20T13:31:30;8.66;;;8.66;;
50417;SDS011;36346;48.280;14.292;2023-08-20T13:33:58;8.64;;;8.64;;
50417;SDS011;36346;48.280;14.292;2023-08-20T13:36:27;13.69;;;13.69;;
50417;SDS011;36346;48.280;14.292;2023-08-20T13:38:55;8.47;;;8.47;;
50417;SDS011;36346;48.280;14.292;2023-08-20T13:41:23;9.59;;;9.59;;
50417;SDS011;36346;48.280;14.292;2023-08-20T13:43:51;13.62;;;13.62;;
50417;SDS011;36346;48.280;14.292;2023-08-20T13:46:19;10.27;;;10.27;;
50417;SDS011;36346;48.280;14.292;2023-08-20T13:48:47;9.28;;;9.28;;
50417;SDS011;36346;48.280;14.292;2023-08-20T13:51:15;7.88;;;7.88;;
50417;SDS011;36346;48.280;14.292;2023-08-20T13:53:43;9.69;;;9.69;;
50417;SDS011;36346;48.280;14.292;2023-08-20T13:56:11;6.41;;;6.41;;
50417;SDS011;36346;48.280;14.292;2023-08-20T13:58:39;9.33;;;9.33;;
50417;SDS011;36346;48.280;14.292;2023-08-20T14:01:07;9.06;;;9.06;;
50417;SDS011;36346;48.280;14.292;2023-08-20T14:03:35;7.26;;;7.26;;
50417;SDS011;36346;48.280;14.292;2023-08-20T14:06:03;6.79;;;6.79;;
50417;SDS011;36346;48.280;14.292;2023-08-20T14:08:32;7.05;;;7.05;;
50417;SDS011;36346;48.280;14.292;2023-08-20T14:11:02;6.65;;;6.65;;
50417;SDS011;36346;48.280;14.292;2023-08-20T14:13:31;5.86;;;5.86;;
50417;SDS011;36346;48.280;14.292;2023-08-20T14:15:59;6.49;;;6.49;;
50417;SDS011;36346;48.280;14.292;2023-08-20T14:18:28;8.62;;;8.62;;
50417;SDS011;36346;48.280;14.292;2023-08-20T14:20:56;13.63;;;13.63;;
50417;SDS011;36346;48.280;14.292;2023-08-20T14:23:26;14.05;;;14.05;;
50417;SDS011;36346;48.280;14.292;2023-08-20T14:25:54;7.79;;;7.79;;
50417;SDS011;36346;48.280;14.292;2023-08-20T14:28:22;6.44;;;6.44;;
50417;SDS011;36346;48.280;14.292;2023-08-20T14:30:50;8.57;;;8.57;;